createdAt,value
2022-08-22T00:02:01.817Z,101279.72
2022-08-22T00:02:43.200Z,101234.16
2022-08-22T00:03:12.378Z,101234.72
2022-08-22T00:04:34.311Z,101279.84
2022-08-22T00:07:04.148Z,101287.00
2022-08-22T00:09:33.831Z,101283.59
2022-08-22T00:12:05.321Z,101284.59
2022-08-22T00:14:34.954Z,101286.31
2022-08-22T00:17:04.445Z,101282.72
2022-08-22T00:19:35.077Z,101279.31
2022-08-22T00:22:03.346Z,101287.59
2022-08-22T00:24:34.490Z,101274.00
2022-08-22T00:27:04.446Z,101277.56
2022-08-22T00:29:34.540Z,101284.88
2022-08-22T00:32:05.679Z,101280.44
2022-08-22T00:34:35.895Z,101279.44
2022-08-22T00:37:07.330Z,101285.88
2022-08-22T00:39:36.860Z,101273.31
2022-08-22T00:42:31.604Z,101279.31
2022-08-22T00:45:32.960Z,101284.47
2022-08-22T00:48:11.298Z,101287.88
2022-08-22T00:51:00.326Z,101282.59
2022-08-22T00:53:45.890Z,101279.03
2022-08-22T00:56:19.631Z,101275.59
2022-08-22T00:58:54.844Z,101278.72
2022-08-22T01:01:23.386Z,101276.16
2022-08-22T01:03:57.557Z,101283.56
2022-08-22T01:06:29.512Z,101272.13
2022-08-22T01:09:02.099Z,101286.69
2022-08-22T01:11:49.151Z,101280.44
2022-08-22T01:14:34.412Z,101285.00
2022-08-22T01:17:08.762Z,101290.16
2022-08-22T01:19:54.029Z,101291.00
2022-08-22T01:22:36.617Z,101298.44
2022-08-22T01:25:26.283Z,101295.88
2022-08-22T01:28:12.705Z,101298.72
2022-08-22T01:30:54.313Z,101302.28
2022-08-22T01:33:40.192Z,101307.28
2022-08-22T01:36:15.709Z,101305.00
2022-08-22T01:39:10.883Z,101295.88
2022-08-22T01:41:45.129Z,101303.13
2022-08-22T01:44:17.091Z,101294.16
2022-08-22T01:46:48.415Z,101297.84
2022-08-22T01:49:19.268Z,101297.84
2022-08-22T01:51:49.450Z,101295.56
2022-08-22T01:54:22.666Z,101291.84
2022-08-22T01:56:54.217Z,101296.44
2022-08-22T01:59:33.789Z,101290.16
2022-08-22T02:02:06.032Z,101290.16
2022-08-22T02:04:35.665Z,101288.16
2022-08-22T02:07:06.247Z,101293.88
2022-08-22T02:09:36.211Z,101296.72
2022-08-22T02:12:14.328Z,101290.44
2022-08-22T02:14:53.087Z,101295.88
2022-08-22T02:17:22.382Z,101298.59
2022-08-22T02:19:51.644Z,101294.44
2022-08-22T02:22:23.256Z,101298.13
2022-08-22T02:24:52.348Z,101292.00
2022-08-22T02:27:24.346Z,101300.13
2022-08-22T02:29:59.121Z,101294.72
2022-08-22T02:32:28.188Z,101293.88
2022-08-22T02:34:58.569Z,101297.72
2022-08-22T02:37:33.244Z,101299.44
2022-08-22T02:40:04.193Z,101293.00
2022-08-22T02:42:34.914Z,101292.56
2022-08-22T02:45:16.844Z,101291.84
2022-08-22T02:47:47.465Z,101295.28
2022-08-22T02:50:17.613Z,101299.56
2022-08-22T02:52:50.661Z,101292.41
2022-08-22T02:55:20.106Z,101288.56
2022-08-22T02:57:49.125Z,101287.69
2022-08-22T03:00:31.720Z,101291.28
2022-08-22T03:03:02.759Z,101286.84
2022-08-22T03:05:31.380Z,101287.13
2022-08-22T03:08:03.369Z,101292.41
2022-08-22T03:10:36.458Z,101294.44
2022-08-22T03:13:07.997Z,101291.84
2022-08-22T03:15:37.843Z,101284.84
2022-08-22T03:18:07.773Z,101297.56
2022-08-22T03:20:43.248Z,101290.69
2022-08-22T03:23:14.331Z,101288.13
2022-08-22T03:25:46.441Z,101290.69
2022-08-22T03:28:14.747Z,101278.00
2022-08-22T03:30:43.338Z,101276.41
2022-08-22T03:33:15.635Z,101279.84
2022-08-22T03:35:52.190Z,101286.41
2022-08-22T03:38:22.325Z,101281.28
2022-08-22T03:41:19.797Z,101282.25
2022-08-22T03:44:03.522Z,101283.25
2022-08-22T03:46:42.167Z,101281.84
2022-08-22T03:49:30.763Z,101280.94
2022-08-22T03:52:03.153Z,101288.94
2022-08-22T03:54:45.402Z,101283.81
2022-08-22T03:57:21.268Z,101294.38
2022-08-22T04:00:05.517Z,101303.94
2022-08-22T04:02:43.306Z,101294.34
2022-08-22T04:05:19.372Z,101302.78
2022-08-22T04:08:02.877Z,101303.81
2022-08-22T04:10:45.787Z,101309.50
2022-08-22T04:13:43.412Z,101307.91
2022-08-22T04:16:15.693Z,101304.94
2022-08-22T04:18:47.331Z,101315.78
2022-08-22T04:21:35.484Z,101308.66
2022-08-22T04:24:18.024Z,101317.78
2022-08-22T04:26:49.037Z,101316.63
2022-08-22T04:29:18.027Z,101323.06
2022-08-22T04:31:47.734Z,101341.22
2022-08-22T04:34:17.522Z,101325.06
2022-08-22T04:36:46.006Z,101329.47
2022-08-22T04:39:14.386Z,101327.78
2022-08-22T04:41:42.797Z,101326.06
2022-08-22T04:44:14.760Z,101320.63
2022-08-22T04:46:43.010Z,101325.22
2022-08-22T04:49:12.387Z,101326.19
2022-08-22T04:51:41.502Z,101337.03
2022-08-22T04:54:16.945Z,101335.19
2022-08-22T04:56:47.125Z,101340.59
2022-08-22T04:59:16.875Z,101340.47
2022-08-22T05:01:46.649Z,101345.03
2022-08-22T05:04:15.703Z,101352.19
2022-08-22T05:06:45.212Z,101355.19
2022-08-22T05:09:16.348Z,101359.31
2022-08-22T05:11:46.109Z,101348.38
2022-08-22T05:14:17.816Z,101355.25
2022-08-22T05:16:46.419Z,101357.75
2022-08-22T05:19:19.651Z,101356.72
2022-08-22T05:21:51.026Z,101353.63
2022-08-22T05:24:21.639Z,101355.06
2022-08-22T05:26:50.017Z,101354.78
2022-08-22T05:29:20.308Z,101347.31
2022-08-22T05:31:48.610Z,101358.75
2022-08-22T05:34:17.180Z,101356.63
2022-08-22T05:36:45.446Z,101353.63
2022-08-22T05:39:14.155Z,101358.03
2022-08-22T05:41:41.815Z,101348.91
2022-08-22T05:44:16.571Z,101353.91
2022-08-22T05:46:46.748Z,101356.34
2022-08-22T05:49:16.684Z,101367.91
2022-08-22T05:51:46.432Z,101358.63
2022-08-22T05:54:15.092Z,101375.63
2022-08-22T05:56:43.399Z,101374.34
2022-08-22T05:59:14.068Z,101370.19
2022-08-22T06:01:43.656Z,101375.59
2022-08-22T06:04:15.730Z,101381.72
2022-08-22T06:06:44.323Z,101381.84
2022-08-22T06:09:13.808Z,101380.72
2022-08-22T06:11:42.016Z,101387.41
2022-08-22T06:14:17.580Z,101390.13
2022-08-22T06:16:47.675Z,101382.72
2022-08-22T06:19:19.730Z,101392.56
2022-08-22T06:21:48.318Z,101381.72
2022-08-22T06:24:18.971Z,101387.00
2022-08-22T06:26:48.807Z,101390.31
2022-08-22T06:29:18.343Z,101386.44
2022-08-22T06:31:46.613Z,101390.47
2022-08-22T06:34:15.599Z,101391.34
2022-08-22T06:36:45.205Z,101400.50
2022-08-22T06:39:16.539Z,101392.09
2022-08-22T06:41:46.371Z,101392.78
2022-08-22T06:44:14.977Z,101394.50
2022-08-22T06:46:42.578Z,101393.34
2022-08-22T06:49:10.166Z,101395.06
2022-08-22T06:51:38.117Z,101402.22
2022-08-22T06:54:08.681Z,101396.63
2022-08-22T06:56:39.789Z,101401.91
2022-08-22T06:59:08.199Z,101400.06
2022-08-22T07:01:36.489Z,101403.50
2022-08-22T07:04:05.122Z,101406.06
2022-08-22T07:06:33.143Z,101399.66
2022-08-22T07:09:06.734Z,101399.66
2022-08-22T07:11:38.009Z,101403.06
2022-08-22T07:14:06.067Z,101408.38
2022-08-22T07:16:34.528Z,101400.22
2022-08-22T07:19:02.160Z,101407.22
2022-08-22T07:21:30.336Z,101407.22
2022-08-22T07:24:01.038Z,101411.50
2022-08-22T07:26:30.153Z,101419.66
2022-08-22T07:28:59.716Z,101416.78
2022-08-22T07:31:37.213Z,101413.09
2022-08-22T07:34:10.817Z,101418.38
2022-08-22T07:36:41.375Z,101422.66
2022-08-22T07:39:14.340Z,101413.66
2022-08-22T07:41:45.144Z,101416.22
2022-08-22T07:44:14.896Z,101419.78
2022-08-22T07:46:43.174Z,101410.78
2022-08-22T07:49:12.069Z,101413.34
2022-08-22T07:51:41.863Z,101414.78
2022-08-22T07:54:10.173Z,101419.94
2022-08-22T07:56:38.629Z,101416.34
2022-08-22T07:59:09.902Z,101415.59
2022-08-22T08:01:43.577Z,101411.59
2022-08-22T08:04:12.547Z,101416.03
2022-08-22T08:06:40.131Z,101415.03
2022-08-22T08:09:07.755Z,101421.16
2022-08-22T08:11:36.656Z,101420.16
2022-08-22T08:14:05.260Z,101421.78
2022-08-22T08:16:34.478Z,101417.59
2022-08-22T08:19:03.506Z,101417.91
2022-08-22T08:21:31.744Z,101421.78
2022-08-22T08:24:00.203Z,101420.16
2022-08-22T08:26:29.196Z,101420.16
2022-08-22T08:28:56.268Z,101421.03
2022-08-22T08:31:25.051Z,101414.72
2022-08-22T08:33:53.828Z,101420.91
2022-08-22T08:36:35.105Z,101418.19
2022-08-22T08:39:10.300Z,101413.47
2022-08-22T08:41:42.360Z,101413.47
2022-08-22T08:44:13.380Z,101418.78
2022-08-22T08:46:50.196Z,101413.19
2022-08-22T08:49:26.566Z,101405.88
2022-08-22T08:52:19.034Z,101403.00
2022-08-22T08:54:55.731Z,101409.31
2022-08-22T08:57:30.149Z,101406.44
2022-08-22T09:00:02.466Z,101407.31
2022-08-22T09:02:36.840Z,101407.31
2022-08-22T09:05:25.562Z,101409.88
2022-08-22T09:07:57.130Z,101406.13
2022-08-22T09:10:33.857Z,101404.13
2022-08-22T09:13:12.222Z,101408.56
2022-08-22T09:16:04.758Z,101407.56
2022-08-22T09:18:47.657Z,101409.41
2022-08-22T09:21:30.705Z,101409.25
2022-08-22T09:24:08.621Z,101414.69
2022-08-22T09:26:41.529Z,101412.72
2022-08-22T09:29:12.477Z,101405.56
2022-08-22T09:31:48.217Z,101412.72
2022-08-22T09:34:25.363Z,101413.41
2022-08-22T09:36:59.142Z,101412.41
2022-08-22T09:39:28.391Z,101415.13
2022-08-22T09:41:58.914Z,101415.84
2022-08-22T09:44:29.314Z,101423.00
2022-08-22T09:46:59.122Z,101415.69
2022-08-22T09:49:28.773Z,101408.38
2022-08-22T09:51:58.556Z,101405.50
2022-08-22T09:54:31.725Z,101411.84
2022-08-22T09:57:22.694Z,101400.94
2022-08-22T10:00:13.533Z,101402.50
2022-08-22T10:02:44.858Z,101406.09
2022-08-22T10:05:40.572Z,101408.81
2022-08-22T10:08:20.021Z,101412.09
2022-08-22T10:10:54.807Z,101406.66
2022-08-22T10:13:26.640Z,101413.63
2022-08-22T10:15:58.491Z,101417.22
2022-08-22T10:18:29.112Z,101415.34
2022-08-22T10:21:02.506Z,101409.75
2022-08-22T10:23:31.290Z,101414.34
2022-08-22T10:26:13.364Z,101416.06
2022-08-22T10:28:52.347Z,101419.50
2022-08-22T10:31:30.243Z,101417.78
2022-08-22T10:34:06.088Z,101415.75
2022-08-22T10:36:42.644Z,101418.31
2022-08-22T10:39:12.018Z,101406.44
2022-08-22T10:41:45.539Z,101414.47
2022-08-22T10:44:15.813Z,101409.88
2022-08-22T10:46:49.426Z,101416.19
2022-08-22T10:49:22.462Z,101406.84
2022-08-22T10:51:58.403Z,101406.00
2022-08-22T10:54:30.109Z,101399.72
2022-08-22T10:57:00.699Z,101395.13
2022-08-22T10:59:30.157Z,101400.41
2022-08-22T11:02:02.757Z,101400.41
2022-08-22T11:04:33.405Z,101397.69
2022-08-22T11:07:03.452Z,101404.69
2022-08-22T11:09:36.959Z,101396.50
2022-08-22T11:12:08.875Z,101403.69
2022-08-22T11:14:51.354Z,101405.41
2022-08-22T11:17:31.029Z,101403.38
2022-08-22T11:20:09.460Z,101396.22
2022-08-22T11:22:41.981Z,101400.66
2022-08-22T11:25:36.053Z,101405.94
2022-08-22T11:28:21.721Z,101394.06
2022-08-22T11:30:54.373Z,101399.50
2022-08-22T11:33:46.561Z,101395.75
2022-08-22T11:36:33.092Z,101398.34
2022-08-22T11:39:02.951Z,101397.34
2022-08-22T11:41:32.529Z,101391.03
2022-08-22T11:44:01.480Z,101388.16
2022-08-22T11:46:32.247Z,101399.06
2022-08-22T11:49:25.570Z,101395.31
2022-08-22T11:52:08.518Z,101394.47
2022-08-22T11:54:58.708Z,101381.53
2022-08-22T11:57:29.031Z,101390.59
2022-08-22T11:59:59.550Z,101382.44
2022-08-22T12:02:28.015Z,101394.16
2022-08-22T12:04:59.273Z,101393.13
2022-08-22T12:07:28.737Z,101385.84
2022-08-22T12:09:56.678Z,101374.06
2022-08-22T12:12:25.843Z,101372.22
2022-08-22T12:14:56.245Z,101381.94
2022-08-22T12:17:55.221Z,101375.50
2022-08-22T12:20:37.068Z,101370.91
2022-08-22T12:23:12.230Z,101371.78
2022-08-22T12:25:45.586Z,101368.91
2022-08-22T12:28:16.744Z,101369.75
2022-08-22T12:30:49.552Z,101367.88
2022-08-22T12:33:25.650Z,101359.72
2022-08-22T12:35:56.688Z,101366.88
2022-08-22T12:38:32.735Z,101366.03
2022-08-22T12:41:13.842Z,101361.44
2022-08-22T12:43:58.222Z,101359.44
2022-08-22T12:46:29.413Z,101363.19
2022-08-22T12:49:10.506Z,101357.59
2022-08-22T12:51:46.753Z,101353.00
2022-08-22T12:54:32.302Z,101348.69
2022-08-22T12:57:04.252Z,101346.53
2022-08-22T12:59:43.394Z,101355.56
2022-08-22T13:02:15.354Z,101345.50
2022-08-22T13:04:44.645Z,101346.25
2022-08-22T13:07:18.320Z,101344.38
2022-08-22T13:09:48.477Z,101338.06
2022-08-22T13:12:21.267Z,101344.22
2022-08-22T13:14:49.012Z,101341.50
2022-08-22T13:17:24.041Z,101336.03
2022-08-22T13:19:58.503Z,101337.72
2022-08-22T13:22:27.583Z,101341.34
2022-08-22T13:25:05.696Z,101346.78
2022-08-22T13:27:51.067Z,101342.19
2022-08-22T13:30:19.961Z,101339.47
2022-08-22T13:32:47.951Z,101337.41
2022-08-22T13:35:20.004Z,101344.75
2022-08-22T13:37:53.120Z,101345.59
2022-08-22T13:40:23.454Z,101342.72
2022-08-22T13:42:56.752Z,101340.88
2022-08-22T13:45:29.190Z,101333.53
2022-08-22T13:47:59.220Z,101334.38
2022-08-22T13:50:53.483Z,101330.66
2022-08-22T13:53:21.910Z,101330.66
2022-08-22T13:55:50.419Z,101326.06
2022-08-22T13:58:21.902Z,101333.25
2022-08-22T14:01:05.502Z,101337.69
2022-08-22T14:03:35.413Z,101334.09
2022-08-22T14:06:35.343Z,101336.66
2022-08-22T14:08:58.379Z,101328.47
2022-08-22T14:11:30.126Z,101330.34
2022-08-22T14:14:00.027Z,101324.75
2022-08-22T14:16:28.436Z,101325.59
2022-08-22T14:18:57.844Z,101321.03
2022-08-22T14:21:40.282Z,101321.56
2022-08-22T14:24:13.393Z,101328.03
2022-08-22T14:26:47.448Z,101323.44
2022-08-22T14:29:17.294Z,101320.72
2022-08-22T14:31:56.079Z,101340.63
2022-08-22T14:34:23.683Z,101319.84
2022-08-22T14:36:55.035Z,101316.13
2022-08-22T14:39:24.477Z,101320.53
2022-08-22T14:41:56.488Z,101326.00
2022-08-22T14:44:28.290Z,101332.31
2022-08-22T14:46:56.949Z,101326.00
2022-08-22T14:49:29.189Z,101329.59
2022-08-22T14:52:00.683Z,101324.97
2022-08-22T14:54:29.215Z,101329.59
2022-08-22T14:56:57.104Z,101332.16
2022-08-22T14:59:30.166Z,101339.44
2022-08-22T15:01:58.332Z,101334.00
2022-08-22T15:04:28.980Z,101325.81
2022-08-22T15:06:58.537Z,101340.31
2022-08-22T15:09:28.257Z,101333.84
2022-08-22T15:11:58.544Z,101323.97
2022-08-22T15:14:42.616Z,101336.56
2022-08-22T15:17:11.196Z,101334.88
2022-08-22T15:19:41.012Z,101331.13
2022-08-22T15:22:11.399Z,101333.69
2022-08-22T15:24:42.844Z,101327.72
2022-08-22T15:27:10.519Z,101334.56
2022-08-22T15:29:46.167Z,101326.41
2022-08-22T15:32:14.406Z,101326.25
2022-08-22T15:34:47.561Z,101334.41
2022-08-22T15:37:32.462Z,101323.53
2022-08-22T15:40:08.100Z,101326.25
2022-08-22T15:42:37.464Z,101327.09
2022-08-22T15:45:07.137Z,101336.09
2022-08-22T15:47:36.461Z,101331.53
2022-08-22T15:50:05.273Z,101334.09
2022-08-22T15:52:34.035Z,101331.38
2022-08-22T15:55:16.551Z,101331.38
2022-08-22T15:58:02.498Z,101316.88
2022-08-22T16:00:33.529Z,101324.91
2022-08-22T16:03:02.804Z,101322.16
2022-08-22T16:05:38.415Z,101324.06
2022-08-22T16:08:06.298Z,101328.50
2022-08-22T16:10:35.131Z,101323.03
2022-08-22T16:13:10.464Z,101325.78
2022-08-22T16:16:07.022Z,101324.91
2022-08-22T16:18:53.278Z,101324.22
2022-08-22T16:21:50.339Z,101325.78
2022-08-22T16:24:34.209Z,101329.34
2022-08-22T16:27:15.838Z,101326.78
2022-08-22T16:29:43.506Z,101328.50
2022-08-22T16:32:11.617Z,101330.19
2022-08-22T16:34:42.924Z,101332.91
2022-08-22T16:37:29.116Z,101332.91
2022-08-22T16:40:09.170Z,101334.63
2022-08-22T16:42:42.783Z,101330.19
2022-08-22T16:45:15.445Z,101331.91
2022-08-22T16:47:43.969Z,101330.19
2022-08-22T16:50:27.088Z,101330.19
2022-08-22T16:53:05.500Z,101334.63
2022-08-22T16:55:51.082Z,101330.03
2022-08-22T16:58:35.695Z,101325.47
2022-08-22T17:01:14.403Z,101329.19
2022-08-22T17:03:43.812Z,101328.19
2022-08-22T17:06:17.154Z,101328.34
2022-08-22T17:08:47.553Z,101332.75
2022-08-22T17:11:19.323Z,101328.19
2022-08-22T17:13:53.026Z,101326.31
2022-08-22T17:16:45.375Z,101328.19
2022-08-22T17:19:16.746Z,101324.75
2022-08-22T17:21:51.836Z,101328.19
2022-08-22T17:24:33.651Z,101334.47
2022-08-22T17:27:08.729Z,101340.78
2022-08-22T17:29:44.249Z,101345.38
2022-08-22T17:32:16.232Z,101347.94
2022-08-22T17:34:46.635Z,101356.13
2022-08-22T17:37:18.118Z,101346.22
2022-08-22T17:39:55.554Z,101345.22
2022-08-22T17:42:39.305Z,101350.34
2022-08-22T17:45:12.419Z,101352.75
2022-08-22T17:47:41.080Z,101351.88
2022-08-22T17:50:11.970Z,101355.66
2022-08-22T17:52:42.643Z,101359.53
2022-08-22T17:55:14.236Z,101362.25
2022-08-22T17:57:45.398Z,101364.97
2022-08-22T18:00:16.398Z,101360.56
2022-08-22T18:02:45.519Z,101367.53
2022-08-22T18:05:14.451Z,101359.84
2022-08-22T18:07:51.670Z,101377.44
2022-08-22T18:10:21.688Z,101373.69
2022-08-22T18:12:51.790Z,101373.84
2022-08-22T18:15:22.846Z,101369.44
2022-08-22T18:17:52.266Z,101371.47
2022-08-22T18:20:23.108Z,101372.31
2022-08-22T18:22:51.455Z,101376.91
2022-08-22T18:25:31.351Z,101379.78
2022-08-22T18:28:08.617Z,101385.22
2022-08-22T18:30:42.135Z,101390.69
2022-08-22T18:33:14.804Z,101399.00
2022-08-22T18:35:54.532Z,101405.84
2022-08-22T18:38:28.032Z,101403.13
2022-08-22T18:41:02.423Z,101398.84
2022-08-22T18:43:52.681Z,101403.28
2022-08-22T18:46:34.238Z,101396.28
2022-08-22T18:49:19.316Z,101408.19
2022-08-22T18:51:51.524Z,101404.47
2022-08-22T18:54:23.715Z,101408.19
2022-08-22T18:56:54.107Z,101402.75
2022-08-22T18:59:31.627Z,101402.75
2022-08-22T19:02:05.474Z,101401.00
2022-08-22T19:04:39.885Z,101403.72
2022-08-22T19:07:14.382Z,101410.91
2022-08-22T19:09:59.097Z,101407.66
2022-08-22T19:12:32.363Z,101407.06
2022-08-22T19:15:16.642Z,101411.69
2022-08-22T19:18:05.706Z,101420.00
2022-08-22T19:20:52.865Z,101418.28
2022-08-22T19:23:40.567Z,101421.88
2022-08-22T19:26:25.307Z,101416.59
2022-08-22T19:28:53.994Z,101422.72
2022-08-22T19:31:23.817Z,101422.72
2022-08-22T19:33:51.778Z,101425.16
2022-08-22T19:36:31.509Z,101421.41
2022-08-22T19:39:00.474Z,101417.81
2022-08-22T19:41:51.317Z,101424.16
2022-08-22T19:44:40.523Z,101419.53
2022-08-22T19:47:26.817Z,101424.84
2022-08-22T19:50:21.542Z,101423.09
2022-08-22T19:53:05.099Z,101424.28
2022-08-22T19:55:35.525Z,101432.63
2022-08-22T19:58:06.424Z,101427.19
2022-08-22T20:00:42.972Z,101431.75
2022-08-22T20:03:11.917Z,101425.28
2022-08-22T20:05:56.640Z,101430.91
2022-08-22T20:08:31.295Z,101429.16
2022-08-22T20:11:03.389Z,101432.94
2022-08-22T20:13:32.093Z,101427.47
2022-08-22T20:16:16.577Z,101428.31
2022-08-22T20:19:06.022Z,101429.31
2022-08-22T20:21:42.097Z,101426.75
2022-08-22T20:24:12.673Z,101425.91
2022-08-22T20:27:03.360Z,101431.50
2022-08-22T20:29:29.744Z,101427.09
2022-08-22T20:31:59.017Z,101431.19
2022-08-22T20:34:28.525Z,101424.03
2022-08-22T20:37:16.190Z,101430.50
2022-08-22T20:39:47.385Z,101427.09
2022-08-22T20:42:26.537Z,101433.84
2022-08-22T20:44:54.708Z,101434.16
2022-08-22T20:47:23.996Z,101435.16
2022-08-22T20:49:53.587Z,101429.38
2022-08-22T20:52:25.073Z,101432.28
2022-08-22T20:55:01.120Z,101428.53
2022-08-22T20:57:28.845Z,101425.28
2022-08-22T21:00:00.466Z,101428.00
2022-08-22T21:02:29.276Z,101425.28
2022-08-22T21:04:58.036Z,101440.59
2022-08-22T21:07:29.588Z,101441.63
2022-08-22T21:10:20.318Z,101451.78
2022-08-22T21:13:08.038Z,101447.38
2022-08-22T21:15:38.489Z,101442.06
2022-08-22T21:18:08.564Z,101443.91
2022-08-22T21:20:36.865Z,101452.28
2022-08-22T21:23:05.174Z,101453.13
2022-08-22T21:25:34.193Z,101443.22
2022-08-22T21:28:01.909Z,101442.53
2022-08-22T21:30:31.256Z,101451.69
2022-08-22T21:32:59.057Z,101456.13
2022-08-22T21:35:27.461Z,101453.41
2022-08-22T21:37:55.194Z,101451.00
2022-08-22T21:40:24.117Z,101453.88
2022-08-22T21:42:59.481Z,101454.00
2022-08-22T21:45:27.756Z,101451.72
2022-08-22T21:47:57.002Z,101454.19
2022-08-22T21:50:29.069Z,101455.94
2022-08-22T21:53:09.146Z,101460.97
2022-08-22T21:55:42.817Z,101452.56
2022-08-22T21:58:12.677Z,101449.69
2022-08-22T22:00:49.017Z,101454.97
2022-08-22T22:03:19.840Z,101457.16
2022-08-22T22:05:49.211Z,101453.81
2022-08-22T22:08:16.911Z,101449.00
2022-08-22T22:10:44.795Z,101450.28
2022-08-22T22:13:12.514Z,101457.88
2022-08-22T22:15:42.338Z,101450.72
2022-08-22T22:18:10.164Z,101444.44
2022-08-22T22:20:39.203Z,101444.72
2022-08-22T22:23:06.951Z,101444.72
2022-08-22T22:25:39.685Z,101439.28
2022-08-22T22:28:10.618Z,101436.88
2022-08-22T22:30:38.356Z,101443.59
2022-08-22T22:33:06.497Z,101434.59
2022-08-22T22:35:34.260Z,101437.59
2022-08-22T22:38:03.260Z,101444.91
2022-08-22T22:40:31.299Z,101440.34
2022-08-22T22:42:59.015Z,101435.91
2022-08-22T22:45:26.783Z,101438.78
2022-08-22T22:47:54.845Z,101433.78
2022-08-22T22:50:23.329Z,101427.59
2022-08-22T22:52:51.100Z,101424.44
2022-08-22T22:55:24.690Z,101431.03
2022-08-22T22:57:59.306Z,101425.59
2022-08-22T23:00:30.670Z,101436.47
2022-08-22T23:02:59.240Z,101435.06
2022-08-22T23:05:27.068Z,101434.75
2022-08-22T23:07:55.034Z,101433.44
2022-08-22T23:10:24.159Z,101433.31
2022-08-22T23:12:51.711Z,101433.59
2022-08-22T23:15:19.456Z,101437.00
2022-08-22T23:17:47.212Z,101444.19
2022-08-22T23:20:14.879Z,101437.00
2022-08-22T23:22:42.960Z,101447.16
2022-08-22T23:25:10.528Z,101439.94
2022-08-22T23:27:40.007Z,101443.41
2022-08-22T23:30:10.492Z,101433.22
2022-08-22T23:32:38.359Z,101445.78
2022-08-22T23:35:06.339Z,101439.19
2022-08-22T23:37:33.992Z,101446.38
2022-08-22T23:40:01.766Z,101450.63
2022-08-22T23:42:29.902Z,101449.63
2022-08-22T23:44:58.833Z,101456.06
2022-08-22T23:47:26.666Z,101456.06
2022-08-22T23:49:54.353Z,101460.53
2022-08-22T23:52:21.972Z,101451.38
2022-08-22T23:54:54.330Z,101450.34
2022-08-22T23:57:26.395Z,101444.75
2022-08-22T23:59:57.868Z,101442.91
